Avon, Massachusetts
Current Conditions -  °F | °C
As of 2:53 AM on Saturday 01 Nov 2014 (Local Time) from KOWD Reporting Station
Broken Clouds Broken Clouds  
Wind Chill: 43°   Ceiling: 8500
Heat Index: 47°   Visibility: 10mi
Dew Point: 35°   Wind: 9mph
Humidity: 63%   Direction: 360°N
Pressure: 29.91"   Gusts: NA
Location:  42.13°N, 71.04°W
Report Text: KOWD 010653Z AUTO 36008KT 10SM BKN085 08/02 A2991 RMK AO2 SLP128 T00830017
Loading
Personal Weather Stations






























Interactive Weather Map New forecast layout! Learn more

10-Day Weather Forecast

Advertisements
Track Severe Weather on mobile